TAF LDZA 260525Z 2606/2706 VRB02KT CAVOK
                 TX25/2613Z TN15/2704Z
    PROB30 TEMPO 2610/2616 SHRA FEW040TCU=
TAF LDZA 252325Z 2600/2700 23005KT CAVOK
                 TX26/2613Z TN12/2604Z=
TAF COR LDZA 251901Z 2519/2618 11005KT CAVOK
                     TX26/2613Z TN13/2604Z
        PROB30 TEMPO 2612/2616 SHRA FEW040TCU=
TAF LDZA 251725Z 2518/2618 11005KT CAVOK
                 TX26/2613Z TN13/2604Z
    PROB30 TEMPO 2612/2616 9999 SHRA FEW040TCU=
TAF LDZA 251125Z 2512/2612 VRB02KT CAVOK
                 TX26/2513Z TN11/2604Z=
TAF LDZA 250525Z 2506/2606 VRB02KT CAVOK
                 TX25/2512Z TN11/2603Z=
TAF LDZA 242325Z 2500/2600 VRB02KT CAVOK
                 TX25/2512Z TN12/2503Z
    PROB30 TEMPO 2512/2516 05007KT=